sensor_id;sensor_type;location;lat;lon;timestamp;P1;durP1;ratioP1;P2;durP2;ratioP2
13592;SDS011;6867;50.998;4.250;2023-02-15T00:01:43;51.43;;;28.00;;
13592;SDS011;6867;50.998;4.250;2023-02-15T00:04:12;53.50;;;30.40;;
13592;SDS011;6867;50.998;4.250;2023-02-15T00:06:39;55.33;;;28.40;;
13592;SDS011;6867;50.998;4.250;2023-02-15T00:09:08;58.60;;;28.73;;
13592;SDS011;6867;50.998;4.250;2023-02-15T00:11:35;53.93;;;28.70;;
13592;SDS011;6867;50.998;4.250;2023-02-15T00:14:15;56.33;;;28.47;;
13592;SDS011;6867;50.998;4.250;2023-02-15T00:16:44;53.33;;;27.73;;
13592;SDS011;6867;50.998;4.250;2023-02-15T00:19:11;55.33;;;28.30;;
13592;SDS011;6867;50.998;4.250;2023-02-15T00:21:39;53.63;;;29.30;;
13592;SDS011;6867;50.998;4.250;2023-02-15T00:24:08;53.67;;;29.37;;
13592;SDS011;6867;50.998;4.250;2023-02-15T00:26:37;54.40;;;28.47;;
13592;SDS011;6867;50.998;4.250;2023-02-15T00:29:05;54.10;;;26.53;;
13592;SDS011;6867;50.998;4.250;2023-02-15T00:31:33;51.30;;;28.63;;
13592;SDS011;6867;50.998;4.250;2023-02-15T00:34:00;46.67;;;27.07;;
13592;SDS011;6867;50.998;4.250;2023-02-15T00:36:27;52.27;;;26.93;;
13592;SDS011;6867;50.998;4.250;2023-02-15T00:38:54;47.30;;;26.50;;
13592;SDS011;6867;50.998;4.250;2023-02-15T00:41:22;53.93;;;26.50;;
13592;SDS011;6867;50.998;4.250;2023-02-15T00:43:49;52.63;;;25.83;;
13592;SDS011;6867;50.998;4.250;2023-02-15T00:46:16;45.97;;;25.50;;
13592;SDS011;6867;50.998;4.250;2023-02-15T00:48:43;48.87;;;26.90;;
13592;SDS011;6867;50.998;4.250;2023-02-15T00:51:09;47.90;;;25.50;;
13592;SDS011;6867;50.998;4.250;2023-02-15T00:53:36;43.90;;;26.00;;
13592;SDS011;6867;50.998;4.250;2023-02-15T00:56:03;46.53;;;25.50;;
13592;SDS011;6867;50.998;4.250;2023-02-15T00:58:31;50.13;;;26.30;;
13592;SDS011;6867;50.998;4.250;2023-02-15T01:01:02;47.53;;;24.70;;
13592;SDS011;6867;50.998;4.250;2023-02-15T01:03:29;46.17;;;23.87;;
13592;SDS011;6867;50.998;4.250;2023-02-15T01:05:56;43.73;;;23.77;;
13592;SDS011;6867;50.998;4.250;2023-02-15T01:08:23;43.50;;;22.33;;
13592;SDS011;6867;50.998;4.250;2023-02-15T01:10:49;38.70;;;21.47;;
13592;SDS011;6867;50.998;4.250;2023-02-15T01:13:16;45.70;;;23.90;;
13592;SDS011;6867;50.998;4.250;2023-02-15T01:15:44;38.80;;;22.37;;
13592;SDS011;6867;50.998;4.250;2023-02-15T01:18:11;45.63;;;22.80;;
13592;SDS011;6867;50.998;4.250;2023-02-15T01:20:39;44.57;;;24.00;;
13592;SDS011;6867;50.998;4.250;2023-02-15T01:23:06;42.67;;;23.30;;
13592;SDS011;6867;50.998;4.250;2023-02-15T01:25:34;42.87;;;23.87;;
13592;SDS011;6867;50.998;4.250;2023-02-15T01:28:02;47.57;;;24.50;;
13592;SDS011;6867;50.998;4.250;2023-02-15T01:30:29;43.87;;;22.63;;
13592;SDS011;6867;50.998;4.250;2023-02-15T01:32:58;52.00;;;25.37;;
13592;SDS011;6867;50.998;4.250;2023-02-15T01:35:25;42.37;;;23.63;;
13592;SDS011;6867;50.998;4.250;2023-02-15T01:37:52;50.67;;;26.53;;
13592;SDS011;6867;50.998;4.250;2023-02-15T01:40:20;44.93;;;23.60;;
13592;SDS011;6867;50.998;4.250;2023-02-15T01:42:49;55.43;;;26.63;;
13592;SDS011;6867;50.998;4.250;2023-02-15T01:45:18;48.73;;;25.17;;
13592;SDS011;6867;50.998;4.250;2023-02-15T01:47:49;47.27;;;24.83;;
13592;SDS011;6867;50.998;4.250;2023-02-15T01:50:22;58.07;;;25.87;;
13592;SDS011;6867;50.998;4.250;2023-02-15T01:52:54;52.03;;;25.27;;
13592;SDS011;6867;50.998;4.250;2023-02-15T01:55:25;49.13;;;25.03;;
13592;SDS011;6867;50.998;4.250;2023-02-15T01:57:55;55.03;;;26.60;;
13592;SDS011;6867;50.998;4.250;2023-02-15T02:00:22;44.17;;;24.50;;
13592;SDS011;6867;50.998;4.250;2023-02-15T02:02:50;46.73;;;23.87;;
13592;SDS011;6867;50.998;4.250;2023-02-15T02:05:19;46.27;;;25.10;;
13592;SDS011;6867;50.998;4.250;2023-02-15T02:07:48;42.20;;;24.23;;
13592;SDS011;6867;50.998;4.250;2023-02-15T02:10:19;45.80;;;25.37;;
13592;SDS011;6867;50.998;4.250;2023-02-15T02:12:49;48.67;;;25.20;;
13592;SDS011;6867;50.998;4.250;2023-02-15T02:15:18;48.90;;;24.27;;
13592;SDS011;6867;50.998;4.250;2023-02-15T02:17:53;44.77;;;24.20;;
13592;SDS011;6867;50.998;4.250;2023-02-15T02:20:39;46.70;;;22.57;;
13592;SDS011;6867;50.998;4.250;2023-02-15T02:23:25;44.70;;;23.40;;
13592;SDS011;6867;50.998;4.250;2023-02-15T02:26:23;54.83;;;24.50;;
13592;SDS011;6867;50.998;4.250;2023-02-15T02:29:17;49.37;;;23.07;;
13592;SDS011;6867;50.998;4.250;2023-02-15T02:32:07;36.30;;;20.30;;
13592;SDS011;6867;50.998;4.250;2023-02-15T02:34:53;43.37;;;21.73;;
13592;SDS011;6867;50.998;4.250;2023-02-15T02:37:28;36.57;;;19.20;;
13592;SDS011;6867;50.998;4.250;2023-02-15T02:40:03;32.17;;;19.37;;
13592;SDS011;6867;50.998;4.250;2023-02-15T02:42:39;39.37;;;20.13;;
13592;SDS011;6867;50.998;4.250;2023-02-15T02:45:08;37.67;;;20.70;;
13592;SDS011;6867;50.998;4.250;2023-02-15T02:47:40;40.47;;;21.43;;
13592;SDS011;6867;50.998;4.250;2023-02-15T02:50:13;39.43;;;21.90;;
13592;SDS011;6867;50.998;4.250;2023-02-15T02:52:45;44.50;;;23.17;;
13592;SDS011;6867;50.998;4.250;2023-02-15T02:55:13;45.40;;;21.70;;
13592;SDS011;6867;50.998;4.250;2023-02-15T02:57:47;45.67;;;22.97;;
13592;SDS011;6867;50.998;4.250;2023-02-15T03:00:19;42.70;;;23.90;;
13592;SDS011;6867;50.998;4.250;2023-02-15T03:02:47;42.70;;;23.80;;
13592;SDS011;6867;50.998;4.250;2023-02-15T03:05:20;45.40;;;25.57;;
13592;SDS011;6867;50.998;4.250;2023-02-15T03:07:51;45.77;;;22.83;;
13592;SDS011;6867;50.998;4.250;2023-02-15T03:10:23;46.43;;;23.90;;
13592;SDS011;6867;50.998;4.250;2023-02-15T03:12:51;46.97;;;24.40;;
13592;SDS011;6867;50.998;4.250;2023-02-15T03:15:19;42.73;;;23.43;;
13592;SDS011;6867;50.998;4.250;2023-02-15T03:17:48;46.63;;;23.13;;
13592;SDS011;6867;50.998;4.250;2023-02-15T03:20:22;51.57;;;23.70;;
13592;SDS011;6867;50.998;4.250;2023-02-15T03:22:53;50.73;;;24.37;;
13592;SDS011;6867;50.998;4.250;2023-02-15T03:25:25;47.30;;;23.83;;
13592;SDS011;6867;50.998;4.250;2023-02-15T03:27:58;52.17;;;24.30;;
13592;SDS011;6867;50.998;4.250;2023-02-15T03:30:28;50.30;;;23.13;;
13592;SDS011;6867;50.998;4.250;2023-02-15T03:32:57;48.63;;;24.27;;
13592;SDS011;6867;50.998;4.250;2023-02-15T03:35:30;45.03;;;23.73;;
13592;SDS011;6867;50.998;4.250;2023-02-15T03:38:10;49.53;;;23.77;;
13592;SDS011;6867;50.998;4.250;2023-02-15T03:40:41;50.50;;;24.33;;
13592;SDS011;6867;50.998;4.250;2023-02-15T03:43:30;47.10;;;23.53;;
13592;SDS011;6867;50.998;4.250;2023-02-15T03:46:05;50.30;;;25.47;;
13592;SDS011;6867;50.998;4.250;2023-02-15T03:48:39;44.83;;;22.47;;
13592;SDS011;6867;50.998;4.250;2023-02-15T03:51:10;48.87;;;23.77;;
13592;SDS011;6867;50.998;4.250;2023-02-15T03:53:57;46.03;;;22.90;;
13592;SDS011;6867;50.998;4.250;2023-02-15T03:56:26;41.43;;;22.57;;
13592;SDS011;6867;50.998;4.250;2023-02-15T03:58:52;55.43;;;23.70;;
13592;SDS011;6867;50.998;4.250;2023-02-15T04:01:38;45.00;;;22.53;;
13592;SDS011;6867;50.998;4.250;2023-02-15T04:04:25;40.63;;;21.63;;
13592;SDS011;6867;50.998;4.250;2023-02-15T04:06:58;43.43;;;23.27;;
13592;SDS011;6867;50.998;4.250;2023-02-15T04:09:25;43.57;;;23.43;;
13592;SDS011;6867;50.998;4.250;2023-02-15T04:12:09;43.77;;;22.63;;
13592;SDS011;6867;50.998;4.250;2023-02-15T04:14:36;46.30;;;22.80;;
13592;SDS011;6867;50.998;4.250;2023-02-15T04:17:20;40.00;;;21.93;;
13592;SDS011;6867;50.998;4.250;2023-02-15T04:19:46;40.57;;;22.07;;
13592;SDS011;6867;50.998;4.250;2023-02-15T04:22:32;47.30;;;23.23;;
13592;SDS011;6867;50.998;4.250;2023-02-15T04:25:16;46.60;;;22.80;;
13592;SDS011;6867;50.998;4.250;2023-02-15T04:27:44;49.93;;;24.17;;
13592;SDS011;6867;50.998;4.250;2023-02-15T04:30:12;43.60;;;23.03;;
13592;SDS011;6867;50.998;4.250;2023-02-15T04:32:40;39.33;;;21.50;;
13592;SDS011;6867;50.998;4.250;2023-02-15T04:35:07;43.33;;;21.47;;
13592;SDS011;6867;50.998;4.250;2023-02-15T04:37:36;44.00;;;21.33;;
13592;SDS011;6867;50.998;4.250;2023-02-15T04:40:04;51.17;;;24.00;;
13592;SDS011;6867;50.998;4.250;2023-02-15T04:42:34;52.77;;;23.07;;
13592;SDS011;6867;50.998;4.250;2023-02-15T04:45:01;48.80;;;23.67;;
13592;SDS011;6867;50.998;4.250;2023-02-15T04:47:28;48.87;;;24.70;;
13592;SDS011;6867;50.998;4.250;2023-02-15T04:49:54;51.87;;;24.10;;
13592;SDS011;6867;50.998;4.250;2023-02-15T04:52:21;49.60;;;26.30;;
13592;SDS011;6867;50.998;4.250;2023-02-15T04:54:49;51.07;;;24.40;;
13592;SDS011;6867;50.998;4.250;2023-02-15T04:57:16;56.50;;;26.87;;
13592;SDS011;6867;50.998;4.250;2023-02-15T04:59:43;51.20;;;24.13;;
13592;SDS011;6867;50.998;4.250;2023-02-15T05:02:09;46.23;;;23.37;;
13592;SDS011;6867;50.998;4.250;2023-02-15T05:04:36;48.87;;;23.63;;
13592;SDS011;6867;50.998;4.250;2023-02-15T05:07:03;46.67;;;23.70;;
13592;SDS011;6867;50.998;4.250;2023-02-15T05:09:29;50.93;;;23.37;;
13592;SDS011;6867;50.998;4.250;2023-02-15T05:11:57;42.47;;;22.87;;
13592;SDS011;6867;50.998;4.250;2023-02-15T05:14:24;50.07;;;24.03;;
13592;SDS011;6867;50.998;4.250;2023-02-15T05:16:51;47.73;;;23.77;;
13592;SDS011;6867;50.998;4.250;2023-02-15T05:19:18;44.73;;;23.57;;
13592;SDS011;6867;50.998;4.250;2023-02-15T05:21:45;45.97;;;22.63;;
13592;SDS011;6867;50.998;4.250;2023-02-15T05:24:12;36.97;;;21.27;;
13592;SDS011;6867;50.998;4.250;2023-02-15T05:26:57;43.30;;;23.20;;
13592;SDS011;6867;50.998;4.250;2023-02-15T05:29:41;45.97;;;22.77;;
13592;SDS011;6867;50.998;4.250;2023-02-15T05:32:08;41.53;;;22.67;;
13592;SDS011;6867;50.998;4.250;2023-02-15T05:34:35;44.60;;;23.80;;
13592;SDS011;6867;50.998;4.250;2023-02-15T05:37:02;41.87;;;22.53;;
13592;SDS011;6867;50.998;4.250;2023-02-15T05:39:28;40.20;;;22.70;;
13592;SDS011;6867;50.998;4.250;2023-02-15T05:41:59;44.67;;;22.43;;
13592;SDS011;6867;50.998;4.250;2023-02-15T05:44:26;47.97;;;22.23;;
13592;SDS011;6867;50.998;4.250;2023-02-15T05:46:53;45.13;;;21.97;;
13592;SDS011;6867;50.998;4.250;2023-02-15T05:49:19;40.73;;;21.50;;
13592;SDS011;6867;50.998;4.250;2023-02-15T05:51:46;51.37;;;25.33;;
13592;SDS011;6867;50.998;4.250;2023-02-15T05:54:13;45.57;;;21.90;;
13592;SDS011;6867;50.998;4.250;2023-02-15T05:56:39;43.53;;;21.33;;
13592;SDS011;6867;50.998;4.250;2023-02-15T05:59:08;46.27;;;23.53;;
13592;SDS011;6867;50.998;4.250;2023-02-15T06:01:34;41.37;;;22.40;;
13592;SDS011;6867;50.998;4.250;2023-02-15T06:04:01;43.90;;;22.30;;
13592;SDS011;6867;50.998;4.250;2023-02-15T06:06:28;44.43;;;22.90;;
13592;SDS011;6867;50.998;4.250;2023-02-15T06:08:55;40.97;;;22.10;;
13592;SDS011;6867;50.998;4.250;2023-02-15T06:11:21;46.40;;;23.80;;
13592;SDS011;6867;50.998;4.250;2023-02-15T06:13:48;45.57;;;22.50;;
13592;SDS011;6867;50.998;4.250;2023-02-15T06:16:16;40.90;;;22.53;;
13592;SDS011;6867;50.998;4.250;2023-02-15T06:18:43;49.73;;;24.13;;
13592;SDS011;6867;50.998;4.250;2023-02-15T06:21:09;52.10;;;25.70;;
13592;SDS011;6867;50.998;4.250;2023-02-15T06:23:36;46.93;;;22.63;;
13592;SDS011;6867;50.998;4.250;2023-02-15T06:26:03;44.03;;;23.67;;
13592;SDS011;6867;50.998;4.250;2023-02-15T06:28:29;41.70;;;22.60;;
13592;SDS011;6867;50.998;4.250;2023-02-15T06:30:56;43.87;;;23.67;;
13592;SDS011;6867;50.998;4.250;2023-02-15T06:33:24;43.27;;;22.83;;
13592;SDS011;6867;50.998;4.250;2023-02-15T06:35:51;42.07;;;23.57;;
13592;SDS011;6867;50.998;4.250;2023-02-15T06:38:18;45.93;;;23.17;;
13592;SDS011;6867;50.998;4.250;2023-02-15T06:40:44;44.20;;;23.10;;
13592;SDS011;6867;50.998;4.250;2023-02-15T06:43:11;40.73;;;22.37;;
13592;SDS011;6867;50.998;4.250;2023-02-15T06:45:37;49.03;;;24.50;;
13592;SDS011;6867;50.998;4.250;2023-02-15T06:48:04;47.40;;;23.50;;
13592;SDS011;6867;50.998;4.250;2023-02-15T06:50:33;46.33;;;24.37;;
13592;SDS011;6867;50.998;4.250;2023-02-15T06:53:00;48.93;;;25.37;;
13592;SDS011;6867;50.998;4.250;2023-02-15T06:55:27;44.70;;;24.30;;
13592;SDS011;6867;50.998;4.250;2023-02-15T06:57:53;49.53;;;25.00;;
13592;SDS011;6867;50.998;4.250;2023-02-15T07:00:20;49.67;;;26.50;;
13592;SDS011;6867;50.998;4.250;2023-02-15T07:02:48;46.13;;;24.47;;
13592;SDS011;6867;50.998;4.250;2023-02-15T07:05:20;47.23;;;23.80;;
13592;SDS011;6867;50.998;4.250;2023-02-15T07:07:48;42.43;;;24.17;;
13592;SDS011;6867;50.998;4.250;2023-02-15T07:10:15;45.67;;;23.50;;
13592;SDS011;6867;50.998;4.250;2023-02-15T07:12:42;45.30;;;23.80;;
13592;SDS011;6867;50.998;4.250;2023-02-15T07:15:09;46.93;;;23.53;;
13592;SDS011;6867;50.998;4.250;2023-02-15T07:17:38;49.00;;;25.43;;
13592;SDS011;6867;50.998;4.250;2023-02-15T07:20:06;40.57;;;23.03;;
13592;SDS011;6867;50.998;4.250;2023-02-15T07:22:35;38.23;;;21.33;;
13592;SDS011;6867;50.998;4.250;2023-02-15T07:25:03;44.03;;;23.70;;
13592;SDS011;6867;50.998;4.250;2023-02-15T07:27:31;41.17;;;21.63;;
13592;SDS011;6867;50.998;4.250;2023-02-15T07:29:58;39.27;;;21.43;;
13592;SDS011;6867;50.998;4.250;2023-02-15T07:32:26;42.40;;;22.47;;
13592;SDS011;6867;50.998;4.250;2023-02-15T07:34:54;50.17;;;23.97;;
13592;SDS011;6867;50.998;4.250;2023-02-15T07:37:21;46.83;;;24.30;;
13592;SDS011;6867;50.998;4.250;2023-02-15T07:39:48;42.43;;;24.07;;
13592;SDS011;6867;50.998;4.250;2023-02-15T07:42:16;48.67;;;25.00;;
13592;SDS011;6867;50.998;4.250;2023-02-15T07:44:42;57.83;;;26.47;;
13592;SDS011;6867;50.998;4.250;2023-02-15T07:47:09;50.30;;;27.20;;
13592;SDS011;6867;50.998;4.250;2023-02-15T07:49:37;50.93;;;26.77;;
13592;SDS011;6867;50.998;4.250;2023-02-15T07:52:03;54.17;;;27.63;;
13592;SDS011;6867;50.998;4.250;2023-02-15T07:54:30;52.93;;;27.57;;
13592;SDS011;6867;50.998;4.250;2023-02-15T07:56:57;55.87;;;28.30;;
13592;SDS011;6867;50.998;4.250;2023-02-15T07:59:25;60.57;;;30.57;;
13592;SDS011;6867;50.998;4.250;2023-02-15T08:01:52;49.30;;;28.37;;
13592;SDS011;6867;50.998;4.250;2023-02-15T08:04:21;57.13;;;32.30;;
13592;SDS011;6867;50.998;4.250;2023-02-15T08:06:47;73.03;;;36.50;;
13592;SDS011;6867;50.998;4.250;2023-02-15T08:09:18;66.10;;;37.57;;
13592;SDS011;6867;50.998;4.250;2023-02-15T08:11:45;71.73;;;36.43;;
13592;SDS011;6867;50.998;4.250;2023-02-15T08:14:14;70.20;;;34.20;;
13592;SDS011;6867;50.998;4.250;2023-02-15T08:16:43;61.70;;;33.50;;
13592;SDS011;6867;50.998;4.250;2023-02-15T08:19:12;58.53;;;30.53;;
13592;SDS011;6867;50.998;4.250;2023-02-15T08:21:41;67.57;;;34.87;;
13592;SDS011;6867;50.998;4.250;2023-02-15T08:24:09;68.97;;;34.30;;
13592;SDS011;6867;50.998;4.250;2023-02-15T08:26:37;63.33;;;31.33;;
13592;SDS011;6867;50.998;4.250;2023-02-15T08:29:05;57.67;;;32.03;;
13592;SDS011;6867;50.998;4.250;2023-02-15T08:31:33;57.57;;;33.10;;
13592;SDS011;6867;50.998;4.250;2023-02-15T08:34:01;58.87;;;32.37;;
13592;SDS011;6867;50.998;4.250;2023-02-15T08:36:29;68.23;;;34.33;;
13592;SDS011;6867;50.998;4.250;2023-02-15T08:38:58;67.53;;;31.70;;
13592;SDS011;6867;50.998;4.250;2023-02-15T08:41:26;60.23;;;33.13;;
13592;SDS011;6867;50.998;4.250;2023-02-15T08:43:54;57.87;;;32.43;;
13592;SDS011;6867;50.998;4.250;2023-02-15T08:46:23;57.17;;;32.70;;
13592;SDS011;6867;50.998;4.250;2023-02-15T08:48:51;65.60;;;33.33;;
13592;SDS011;6867;50.998;4.250;2023-02-15T08:51:20;61.53;;;32.33;;
13592;SDS011;6867;50.998;4.250;2023-02-15T08:53:51;63.30;;;34.93;;
13592;SDS011;6867;50.998;4.250;2023-02-15T08:56:19;59.37;;;33.53;;
13592;SDS011;6867;50.998;4.250;2023-02-15T08:58:48;59.13;;;32.90;;
13592;SDS011;6867;50.998;4.250;2023-02-15T09:01:17;60.70;;;32.83;;
13592;SDS011;6867;50.998;4.250;2023-02-15T09:03:46;62.10;;;33.17;;
13592;SDS011;6867;50.998;4.250;2023-02-15T09:06:14;64.20;;;31.33;;
13592;SDS011;6867;50.998;4.250;2023-02-15T09:08:43;63.97;;;32.47;;
13592;SDS011;6867;50.998;4.250;2023-02-15T09:11:11;62.10;;;31.47;;
13592;SDS011;6867;50.998;4.250;2023-02-15T09:13:42;66.90;;;31.77;;
13592;SDS011;6867;50.998;4.250;2023-02-15T09:16:09;57.57;;;30.80;;
13592;SDS011;6867;50.998;4.250;2023-02-15T09:18:37;55.77;;;29.47;;
13592;SDS011;6867;50.998;4.250;2023-02-15T09:21:06;67.67;;;31.30;;
13592;SDS011;6867;50.998;4.250;2023-02-15T09:23:34;59.13;;;29.47;;
13592;SDS011;6867;50.998;4.250;2023-02-15T09:26:03;53.37;;;29.20;;
13592;SDS011;6867;50.998;4.250;2023-02-15T09:28:31;59.00;;;29.30;;
13592;SDS011;6867;50.998;4.250;2023-02-15T09:31:04;60.30;;;28.90;;
13592;SDS011;6867;50.998;4.250;2023-02-15T09:33:32;57.93;;;29.13;;
13592;SDS011;6867;50.998;4.250;2023-02-15T09:35:59;59.40;;;29.03;;
13592;SDS011;6867;50.998;4.250;2023-02-15T09:38:26;60.33;;;30.00;;
13592;SDS011;6867;50.998;4.250;2023-02-15T09:40:55;56.83;;;29.93;;
13592;SDS011;6867;50.998;4.250;2023-02-15T09:43:33;61.83;;;27.87;;
13592;SDS011;6867;50.998;4.250;2023-02-15T09:46:17;47.87;;;25.60;;
13592;SDS011;6867;50.998;4.250;2023-02-15T09:48:52;49.70;;;25.60;;
13592;SDS011;6867;50.998;4.250;2023-02-15T09:51:34;48.23;;;25.67;;
13592;SDS011;6867;50.998;4.250;2023-02-15T09:54:21;45.50;;;23.67;;
13592;SDS011;6867;50.998;4.250;2023-02-15T09:57:10;50.93;;;23.67;;
13592;SDS011;6867;50.998;4.250;2023-02-15T09:59:45;43.90;;;23.87;;
13592;SDS011;6867;50.998;4.250;2023-02-15T10:02:27;42.57;;;24.60;;
13592;SDS011;6867;50.998;4.250;2023-02-15T10:05:08;43.87;;;23.57;;
13592;SDS011;6867;50.998;4.250;2023-02-15T10:07:53;40.93;;;22.43;;
13592;SDS011;6867;50.998;4.250;2023-02-15T10:10:38;47.23;;;23.50;;
13592;SDS011;6867;50.998;4.250;2023-02-15T10:13:18;42.73;;;22.37;;
13592;SDS011;6867;50.998;4.250;2023-02-15T10:16:00;40.03;;;22.03;;
13592;SDS011;6867;50.998;4.250;2023-02-15T10:18:43;40.63;;;22.63;;
13592;SDS011;6867;50.998;4.250;2023-02-15T10:21:30;38.83;;;20.13;;
13592;SDS011;6867;50.998;4.250;2023-02-15T10:24:23;37.40;;;19.63;;
13592;SDS011;6867;50.998;4.250;2023-02-15T10:27:07;38.83;;;20.90;;
13592;SDS011;6867;50.998;4.250;2023-02-15T10:29:38;34.43;;;19.33;;
13592;SDS011;6867;50.998;4.250;2023-02-15T10:32:13;34.97;;;20.20;;
13592;SDS011;6867;50.998;4.250;2023-02-15T10:34:50;32.70;;;18.30;;
13592;SDS011;6867;50.998;4.250;2023-02-15T10:40:20;36.10;;;19.37;;
13592;SDS011;6867;50.998;4.250;2023-02-15T10:42:56;31.30;;;18.27;;
13592;SDS011;6867;50.998;4.250;2023-02-15T10:45:36;33.93;;;19.10;;
13592;SDS011;6867;50.998;4.250;2023-02-15T10:48:20;34.17;;;19.23;;
13592;SDS011;6867;50.998;4.250;2023-02-15T10:50:51;36.80;;;20.37;;
13592;SDS011;6867;50.998;4.250;2023-02-15T10:53:25;31.37;;;19.13;;
13592;SDS011;6867;50.998;4.250;2023-02-15T10:56:02;37.33;;;19.87;;
13592;SDS011;6867;50.998;4.250;2023-02-15T10:58:38;37.33;;;20.10;;
13592;SDS011;6867;50.998;4.250;2023-02-15T11:01:18;32.73;;;19.43;;
13592;SDS011;6867;50.998;4.250;2023-02-15T11:03:54;35.67;;;19.87;;
13592;SDS011;6867;50.998;4.250;2023-02-15T11:06:41;38.67;;;20.47;;
13592;SDS011;6867;50.998;4.250;2023-02-15T11:09:13;33.73;;;19.53;;
13592;SDS011;6867;50.998;4.250;2023-02-15T11:11:44;39.67;;;20.10;;
13592;SDS011;6867;50.998;4.250;2023-02-15T11:14:15;37.43;;;20.90;;
13592;SDS011;6867;50.998;4.250;2023-02-15T11:16:47;35.20;;;19.20;;
13592;SDS011;6867;50.998;4.250;2023-02-15T11:19:19;38.73;;;20.63;;
13592;SDS011;6867;50.998;4.250;2023-02-15T11:21:51;39.53;;;20.53;;
13592;SDS011;6867;50.998;4.250;2023-02-15T11:24:21;39.00;;;20.00;;
13592;SDS011;6867;50.998;4.250;2023-02-15T11:26:53;38.27;;;20.17;;
13592;SDS011;6867;50.998;4.250;2023-02-15T11:29:25;35.43;;;20.00;;
13592;SDS011;6867;50.998;4.250;2023-02-15T11:31:58;31.23;;;18.43;;
13592;SDS011;6867;50.998;4.250;2023-02-15T11:34:29;35.20;;;20.20;;
13592;SDS011;6867;50.998;4.250;2023-02-15T11:37:01;36.57;;;19.30;;
13592;SDS011;6867;50.998;4.250;2023-02-15T11:39:33;33.70;;;20.10;;
13592;SDS011;6867;50.998;4.250;2023-02-15T11:42:03;35.87;;;19.63;;
13592;SDS011;6867;50.998;4.250;2023-02-15T11:44:37;36.57;;;19.63;;
13592;SDS011;6867;50.998;4.250;2023-02-15T11:47:09;32.87;;;20.17;;
13592;SDS011;6867;50.998;4.250;2023-02-15T11:49:39;32.77;;;19.40;;
13592;SDS011;6867;50.998;4.250;2023-02-15T11:52:06;34.37;;;19.90;;
13592;SDS011;6867;50.998;4.250;2023-02-15T11:54:39;31.97;;;19.80;;
13592;SDS011;6867;50.998;4.250;2023-02-15T11:57:11;33.30;;;19.93;;
13592;SDS011;6867;50.998;4.250;2023-02-15T11:59:41;33.27;;;19.87;;
13592;SDS011;6867;50.998;4.250;2023-02-15T12:02:15;35.93;;;20.03;;
13592;SDS011;6867;50.998;4.250;2023-02-15T12:04:46;31.47;;;20.10;;
13592;SDS011;6867;50.998;4.250;2023-02-15T12:07:19;37.87;;;19.03;;
13592;SDS011;6867;50.998;4.250;2023-02-15T12:09:51;35.80;;;19.83;;
13592;SDS011;6867;50.998;4.250;2023-02-15T12:12:23;34.67;;;20.30;;
13592;SDS011;6867;50.998;4.250;2023-02-15T12:14:52;40.50;;;21.20;;
13592;SDS011;6867;50.998;4.250;2023-02-15T12:17:20;34.80;;;19.73;;
13592;SDS011;6867;50.998;4.250;2023-02-15T12:19:51;32.07;;;19.93;;
13592;SDS011;6867;50.998;4.250;2023-02-15T12:22:22;35.23;;;19.20;;
13592;SDS011;6867;50.998;4.250;2023-02-15T12:24:51;33.60;;;20.57;;
13592;SDS011;6867;50.998;4.250;2023-02-15T12:27:21;35.63;;;21.37;;
13592;SDS011;6867;50.998;4.250;2023-02-15T12:29:51;37.07;;;20.33;;
13592;SDS011;6867;50.998;4.250;2023-02-15T12:32:22;38.77;;;19.77;;
13592;SDS011;6867;50.998;4.250;2023-02-15T12:34:54;38.80;;;21.47;;
13592;SDS011;6867;50.998;4.250;2023-02-15T12:37:25;35.50;;;20.00;;
13592;SDS011;6867;50.998;4.250;2023-02-15T12:39:57;33.27;;;20.63;;
13592;SDS011;6867;50.998;4.250;2023-02-15T12:42:25;33.37;;;21.57;;
13592;SDS011;6867;50.998;4.250;2023-02-15T12:44:55;35.27;;;20.90;;
13592;SDS011;6867;50.998;4.250;2023-02-15T12:47:23;35.73;;;22.27;;
13592;SDS011;6867;50.998;4.250;2023-02-15T12:52:47;34.30;;;21.03;;
13592;SDS011;6867;50.998;4.250;2023-02-15T12:55:21;37.70;;;21.00;;
13592;SDS011;6867;50.998;4.250;2023-02-15T12:57:49;35.40;;;20.37;;
13592;SDS011;6867;50.998;4.250;2023-02-15T13:00:31;33.57;;;20.27;;
13592;SDS011;6867;50.998;4.250;2023-02-15T13:02:59;35.97;;;20.93;;
13592;SDS011;6867;50.998;4.250;2023-02-15T13:05:30;35.67;;;20.77;;
13592;SDS011;6867;50.998;4.250;2023-02-15T13:08:01;33.50;;;20.03;;
13592;SDS011;6867;50.998;4.250;2023-02-15T13:10:36;36.97;;;20.37;;
13592;SDS011;6867;50.998;4.250;2023-02-15T13:13:09;34.30;;;21.00;;
13592;SDS011;6867;50.998;4.250;2023-02-15T13:15:38;39.70;;;21.73;;
13592;SDS011;6867;50.998;4.250;2023-02-15T13:18:10;34.13;;;19.77;;
13592;SDS011;6867;50.998;4.250;2023-02-15T13:20:43;37.20;;;20.93;;
13592;SDS011;6867;50.998;4.250;2023-02-15T13:23:15;35.67;;;20.23;;
13592;SDS011;6867;50.998;4.250;2023-02-15T13:25:50;38.77;;;21.13;;
13592;SDS011;6867;50.998;4.250;2023-02-15T13:28:17;36.27;;;20.70;;
13592;SDS011;6867;50.998;4.250;2023-02-15T13:30:48;33.05;;;20.10;;
13592;SDS011;6867;50.998;4.250;2023-02-15T13:33:17;39.33;;;22.80;;
13592;SDS011;6867;50.998;4.250;2023-02-15T13:35:56;39.85;;;22.30;;
13592;SDS011;6867;50.998;4.250;2023-02-15T13:38:36;38.45;;;23.70;;
13592;SDS011;6867;50.998;4.250;2023-02-15T13:41:14;35.22;;;22.48;;
13592;SDS011;6867;50.998;4.250;2023-02-15T13:43:45;38.35;;;22.65;;
13592;SDS011;6867;50.998;4.250;2023-02-15T13:46:23;38.30;;;23.65;;
13592;SDS011;6867;50.998;4.250;2023-02-15T13:49:09;37.92;;;22.70;;
13592;SDS011;6867;50.998;4.250;2023-02-15T13:51:48;34.95;;;22.40;;
13592;SDS011;6867;50.998;4.250;2023-02-15T13:54:28;39.78;;;22.65;;
13592;SDS011;6867;50.998;4.250;2023-02-15T13:57:16;36.33;;;21.50;;
13592;SDS011;6867;50.998;4.250;2023-02-15T13:59:57;33.45;;;20.52;;
13592;SDS011;6867;50.998;4.250;2023-02-15T14:05:42;35.15;;;20.35;;
13592;SDS011;6867;50.998;4.250;2023-02-15T14:08:28;37.92;;;21.75;;
13592;SDS011;6867;50.998;4.250;2023-02-15T14:11:07;42.88;;;21.33;;
13592;SDS011;6867;50.998;4.250;2023-02-15T14:13:54;35.28;;;20.88;;
13592;SDS011;6867;50.998;4.250;2023-02-15T14:16:54;38.80;;;20.80;;
13592;SDS011;6867;50.998;4.250;2023-02-15T14:19:28;36.72;;;21.23;;
13592;SDS011;6867;50.998;4.250;2023-02-15T14:22:01;34.22;;;21.90;;
13592;SDS011;6867;50.998;4.250;2023-02-15T14:24:39;35.73;;;20.53;;
13592;SDS011;6867;50.998;4.250;2023-02-15T14:27:13;39.80;;;20.73;;
13592;SDS011;6867;50.998;4.250;2023-02-15T14:29:48;35.20;;;21.00;;
13592;SDS011;6867;50.998;4.250;2023-02-15T14:32:20;38.13;;;21.50;;
13592;SDS011;6867;50.998;4.250;2023-02-15T14:34:54;36.67;;;21.67;;
13592;SDS011;6867;50.998;4.250;2023-02-15T14:37:26;38.30;;;22.07;;
13592;SDS011;6867;50.998;4.250;2023-02-15T14:40:06;36.35;;;21.50;;
13592;SDS011;6867;50.998;4.250;2023-02-15T14:43:11;33.87;;;19.87;;
13592;SDS011;6867;50.998;4.250;2023-02-15T14:45:48;33.57;;;20.70;;
13592;SDS011;6867;50.998;4.250;2023-02-15T14:48:17;35.33;;;21.50;;
13592;SDS011;6867;50.998;4.250;2023-02-15T14:50:47;33.03;;;20.37;;
13592;SDS011;6867;50.998;4.250;2023-02-15T14:56:11;33.53;;;21.23;;
13592;SDS011;6867;50.998;4.250;2023-02-15T14:58:54;33.07;;;19.33;;
13592;SDS011;6867;50.998;4.250;2023-02-15T15:01:26;31.63;;;20.47;;
13592;SDS011;6867;50.998;4.250;2023-02-15T15:03:55;35.80;;;20.37;;
13592;SDS011;6867;50.998;4.250;2023-02-15T15:06:25;31.77;;;20.17;;
13592;SDS011;6867;50.998;4.250;2023-02-15T15:08:54;38.47;;;22.02;;
13592;SDS011;6867;50.998;4.250;2023-02-15T15:11:40;31.70;;;20.00;;